sensor_id;sensor_type;location;lat;lon;timestamp;P1;durP1;ratioP1;P2;durP2;ratioP2
73747;SDS011;62056;52.130;5.428;2023-07-29T00:02:13;13.57;;;2.78;;
73747;SDS011;62056;52.130;5.428;2023-07-29T00:04:40;2.13;;;1.30;;
73747;SDS011;62056;52.130;5.428;2023-07-29T00:07:06;1.83;;;1.30;;
73747;SDS011;62056;52.130;5.428;2023-07-29T00:09:33;1.85;;;1.10;;
73747;SDS011;62056;52.130;5.428;2023-07-29T00:12:00;1.90;;;1.20;;
73747;SDS011;62056;52.130;5.428;2023-07-29T00:14:26;0.98;;;0.77;;
73747;SDS011;62056;52.130;5.428;2023-07-29T00:16:53;1.75;;;1.20;;
73747;SDS011;62056;52.130;5.428;2023-07-29T00:19:20;1.87;;;1.70;;
73747;SDS011;62056;52.130;5.428;2023-07-29T00:21:49;3.10;;;2.90;;
73747;SDS011;62056;52.130;5.428;2023-07-29T00:24:16;1.25;;;0.82;;
73747;SDS011;62056;52.130;5.428;2023-07-29T00:26:43;2.30;;;0.70;;
73747;SDS011;62056;52.130;5.428;2023-07-29T00:29:09;1.50;;;0.90;;
73747;SDS011;62056;52.130;5.428;2023-07-29T00:31:36;1.83;;;0.77;;
73747;SDS011;62056;52.130;5.428;2023-07-29T00:34:03;1.92;;;0.95;;
73747;SDS011;62056;52.130;5.428;2023-07-29T00:36:29;2.80;;;0.88;;
73747;SDS011;62056;52.130;5.428;2023-07-29T00:38:56;1.48;;;0.82;;
73747;SDS011;62056;52.130;5.428;2023-07-29T00:41:23;1.17;;;0.80;;
73747;SDS011;62056;52.130;5.428;2023-07-29T00:43:51;2.03;;;0.70;;
73747;SDS011;62056;52.130;5.428;2023-07-29T00:46:18;2.17;;;0.88;;
73747;SDS011;62056;52.130;5.428;2023-07-29T00:48:45;2.22;;;0.90;;
73747;SDS011;62056;52.130;5.428;2023-07-29T00:51:12;1.38;;;0.57;;
73747;SDS011;62056;52.130;5.428;2023-07-29T00:53:39;1.88;;;1.02;;
73747;SDS011;62056;52.130;5.428;2023-07-29T00:56:06;6.67;;;4.57;;
73747;SDS011;62056;52.130;5.428;2023-07-29T00:58:33;2.83;;;2.58;;
73747;SDS011;62056;52.130;5.428;2023-07-29T01:01:00;2.65;;;1.77;;
73747;SDS011;62056;52.130;5.428;2023-07-29T01:03:27;1.08;;;0.75;;
73747;SDS011;62056;52.130;5.428;2023-07-29T01:08:56;5.93;;;5.40;;
73747;SDS011;62056;52.130;5.428;2023-07-29T01:11:33;21.92;;;17.85;;
73747;SDS011;62056;52.130;5.428;2023-07-29T01:16:55;3.92;;;3.28;;
73747;SDS011;62056;52.130;5.428;2023-07-29T01:22:16;2.60;;;2.00;;
73747;SDS011;62056;52.130;5.428;2023-07-29T01:24:44;4.20;;;2.70;;
73747;SDS011;62056;52.130;5.428;2023-07-29T01:27:10;2.55;;;1.85;;
73747;SDS011;62056;52.130;5.428;2023-07-29T01:29:37;3.08;;;1.50;;
73747;SDS011;62056;52.130;5.428;2023-07-29T01:32:06;2.15;;;1.95;;
73747;SDS011;62056;52.130;5.428;2023-07-29T01:34:47;1.97;;;1.63;;
73747;SDS011;62056;52.130;5.428;2023-07-29T01:37:22;2.67;;;1.58;;
73747;SDS011;62056;52.130;5.428;2023-07-29T01:39:54;2.65;;;1.73;;
73747;SDS011;62056;52.130;5.428;2023-07-29T01:42:25;2.45;;;1.98;;
73747;SDS011;62056;52.130;5.428;2023-07-29T01:44:55;5.72;;;2.13;;
73747;SDS011;62056;52.130;5.428;2023-07-29T01:47:22;4.90;;;4.00;;
73747;SDS011;62056;52.130;5.428;2023-07-29T01:49:49;2.70;;;2.50;;
73747;SDS011;62056;52.130;5.428;2023-07-29T01:52:15;7.18;;;2.95;;
73747;SDS011;62056;52.130;5.428;2023-07-29T01:54:42;4.57;;;3.10;;
73747;SDS011;62056;52.130;5.428;2023-07-29T01:57:09;2.85;;;1.75;;
73747;SDS011;62056;52.130;5.428;2023-07-29T01:59:36;2.47;;;1.23;;
73747;SDS011;62056;52.130;5.428;2023-07-29T02:02:03;4.60;;;4.20;;
73747;SDS011;62056;52.130;5.428;2023-07-29T02:04:29;3.67;;;2.88;;
73747;SDS011;62056;52.130;5.428;2023-07-29T02:06:56;5.15;;;2.65;;
73747;SDS011;62056;52.130;5.428;2023-07-29T02:09:23;6.57;;;5.35;;
73747;SDS011;62056;52.130;5.428;2023-07-29T02:11:50;6.20;;;5.63;;
73747;SDS011;62056;52.130;5.428;2023-07-29T02:14:16;9.63;;;6.22;;
73747;SDS011;62056;52.130;5.428;2023-07-29T02:16:43;6.45;;;4.70;;
73747;SDS011;62056;52.130;5.428;2023-07-29T02:19:10;7.80;;;7.05;;
73747;SDS011;62056;52.130;5.428;2023-07-29T02:21:37;5.95;;;5.07;;
73747;SDS011;62056;52.130;5.428;2023-07-29T02:24:03;8.27;;;5.23;;
73747;SDS011;62056;52.130;5.428;2023-07-29T02:26:30;6.65;;;3.70;;
73747;SDS011;62056;52.130;5.428;2023-07-29T02:28:59;3.70;;;3.30;;
73747;SDS011;62056;52.130;5.428;2023-07-29T02:31:26;3.92;;;3.47;;
73747;SDS011;62056;52.130;5.428;2023-07-29T02:33:52;3.75;;;2.70;;
73747;SDS011;62056;52.130;5.428;2023-07-29T02:36:19;4.20;;;2.77;;
73747;SDS011;62056;52.130;5.428;2023-07-29T02:38:46;3.65;;;2.70;;
73747;SDS011;62056;52.130;5.428;2023-07-29T02:41:12;4.03;;;2.63;;
73747;SDS011;62056;52.130;5.428;2023-07-29T02:43:39;6.60;;;3.60;;
73747;SDS011;62056;52.130;5.428;2023-07-29T02:46:07;7.10;;;4.30;;
73747;SDS011;62056;52.130;5.428;2023-07-29T02:48:34;10.43;;;7.57;;
73747;SDS011;62056;52.130;5.428;2023-07-29T02:51:01;7.22;;;5.15;;
73747;SDS011;62056;52.130;5.428;2023-07-29T02:53:28;3.95;;;3.55;;
73747;SDS011;62056;52.130;5.428;2023-07-29T02:55:54;4.78;;;3.15;;
73747;SDS011;62056;52.130;5.428;2023-07-29T02:58:21;9.05;;;3.53;;
73747;SDS011;62056;52.130;5.428;2023-07-29T03:00:48;4.83;;;3.10;;
73747;SDS011;62056;52.130;5.428;2023-07-29T03:03:15;4.07;;;2.55;;
73747;SDS011;62056;52.130;5.428;2023-07-29T03:05:42;4.60;;;3.17;;
73747;SDS011;62056;52.130;5.428;2023-07-29T03:08:08;3.78;;;3.47;;
73747;SDS011;62056;52.130;5.428;2023-07-29T03:10:35;4.55;;;3.20;;
73747;SDS011;62056;52.130;5.428;2023-07-29T03:13:02;3.47;;;3.13;;
73747;SDS011;62056;52.130;5.428;2023-07-29T03:15:29;3.20;;;2.35;;
73747;SDS011;62056;52.130;5.428;2023-07-29T03:17:56;5.28;;;2.90;;
73747;SDS011;62056;52.130;5.428;2023-07-29T03:20:23;4.18;;;2.50;;
73747;SDS011;62056;52.130;5.428;2023-07-29T03:22:50;3.10;;;2.80;;
73747;SDS011;62056;52.130;5.428;2023-07-29T03:25:17;3.47;;;2.43;;
73747;SDS011;62056;52.130;5.428;2023-07-29T03:27:44;4.38;;;2.78;;
73747;SDS011;62056;52.130;5.428;2023-07-29T03:30:11;5.32;;;4.93;;
73747;SDS011;62056;52.130;5.428;2023-07-29T03:32:40;4.80;;;4.32;;
73747;SDS011;62056;52.130;5.428;2023-07-29T03:35:09;6.97;;;6.28;;
73747;SDS011;62056;52.130;5.428;2023-07-29T03:37:36;11.40;;;10.27;;
73747;SDS011;62056;52.130;5.428;2023-07-29T03:40:03;4.70;;;4.30;;
73747;SDS011;62056;52.130;5.428;2023-07-29T03:42:30;5.00;;;3.15;;
73747;SDS011;62056;52.130;5.428;2023-07-29T03:44:57;4.88;;;3.97;;
73747;SDS011;62056;52.130;5.428;2023-07-29T03:47:24;3.97;;;2.97;;
73747;SDS011;62056;52.130;5.428;2023-07-29T03:49:51;5.57;;;3.20;;
73747;SDS011;62056;52.130;5.428;2023-07-29T03:52:17;4.72;;;3.85;;
73747;SDS011;62056;52.130;5.428;2023-07-29T03:54:44;3.55;;;3.25;;
73747;SDS011;62056;52.130;5.428;2023-07-29T03:57:10;5.63;;;4.68;;
73747;SDS011;62056;52.130;5.428;2023-07-29T03:59:37;4.45;;;3.42;;
73747;SDS011;62056;52.130;5.428;2023-07-29T04:02:04;7.40;;;3.00;;
73747;SDS011;62056;52.130;5.428;2023-07-29T04:04:31;4.97;;;2.67;;
73747;SDS011;62056;52.130;5.428;2023-07-29T04:06:57;3.58;;;2.65;;
73747;SDS011;62056;52.130;5.428;2023-07-29T04:09:24;4.65;;;2.60;;
73747;SDS011;62056;52.130;5.428;2023-07-29T04:11:51;5.10;;;2.70;;
73747;SDS011;62056;52.130;5.428;2023-07-29T04:14:17;2.23;;;2.00;;
73747;SDS011;62056;52.130;5.428;2023-07-29T04:16:44;5.43;;;2.17;;
73747;SDS011;62056;52.130;5.428;2023-07-29T04:19:15;3.88;;;2.55;;
73747;SDS011;62056;52.130;5.428;2023-07-29T04:21:43;3.20;;;2.05;;
73747;SDS011;62056;52.130;5.428;2023-07-29T04:24:09;4.88;;;3.78;;
73747;SDS011;62056;52.130;5.428;2023-07-29T04:26:36;4.63;;;4.10;;
73747;SDS011;62056;52.130;5.428;2023-07-29T04:29:05;4.80;;;3.25;;
73747;SDS011;62056;52.130;5.428;2023-07-29T04:31:32;2.60;;;2.33;;
73747;SDS011;62056;52.130;5.428;2023-07-29T04:33:58;4.30;;;2.78;;
73747;SDS011;62056;52.130;5.428;2023-07-29T04:36:25;2.88;;;2.08;;
73747;SDS011;62056;52.130;5.428;2023-07-29T04:38:52;2.00;;;1.60;;
73747;SDS011;62056;52.130;5.428;2023-07-29T04:41:18;2.22;;;1.85;;
73747;SDS011;62056;52.130;5.428;2023-07-29T04:43:45;2.83;;;2.05;;
73747;SDS011;62056;52.130;5.428;2023-07-29T04:46:12;2.72;;;1.42;;
73747;SDS011;62056;52.130;5.428;2023-07-29T04:48:39;3.65;;;2.33;;
73747;SDS011;62056;52.130;5.428;2023-07-29T04:51:06;2.37;;;1.67;;
73747;SDS011;62056;52.130;5.428;2023-07-29T04:53:32;2.30;;;1.48;;
73747;SDS011;62056;52.130;5.428;2023-07-29T04:56:01;2.08;;;1.30;;
73747;SDS011;62056;52.130;5.428;2023-07-29T04:58:28;2.10;;;1.73;;
73747;SDS011;62056;52.130;5.428;2023-07-29T05:00:56;1.52;;;1.10;;
73747;SDS011;62056;52.130;5.428;2023-07-29T05:03:22;3.17;;;1.20;;
73747;SDS011;62056;52.130;5.428;2023-07-29T05:05:49;1.50;;;1.23;;
73747;SDS011;62056;52.130;5.428;2023-07-29T05:08:18;1.52;;;1.20;;
73747;SDS011;62056;52.130;5.428;2023-07-29T05:10:48;1.70;;;1.38;;
73747;SDS011;62056;52.130;5.428;2023-07-29T05:13:15;2.33;;;1.60;;
73747;SDS011;62056;52.130;5.428;2023-07-29T05:15:41;2.50;;;1.27;;
73747;SDS011;62056;52.130;5.428;2023-07-29T05:18:08;1.60;;;1.23;;
73747;SDS011;62056;52.130;5.428;2023-07-29T05:20:35;1.90;;;1.65;;
73747;SDS011;62056;52.130;5.428;2023-07-29T05:23:02;3.55;;;1.02;;
73747;SDS011;62056;52.130;5.428;2023-07-29T05:25:29;5.70;;;1.23;;
73747;SDS011;62056;52.130;5.428;2023-07-29T05:27:55;2.00;;;1.80;;
73747;SDS011;62056;52.130;5.428;2023-07-29T05:30:23;4.13;;;2.10;;
73747;SDS011;62056;52.130;5.428;2023-07-29T05:32:50;3.15;;;1.83;;
73747;SDS011;62056;52.130;5.428;2023-07-29T05:35:16;2.38;;;1.45;;
73747;SDS011;62056;52.130;5.428;2023-07-29T05:37:43;4.18;;;2.75;;
73747;SDS011;62056;52.130;5.428;2023-07-29T05:40:10;2.70;;;1.87;;
73747;SDS011;62056;52.130;5.428;2023-07-29T05:42:37;5.32;;;1.77;;
73747;SDS011;62056;52.130;5.428;2023-07-29T05:45:04;2.53;;;1.50;;
73747;SDS011;62056;52.130;5.428;2023-07-29T05:47:32;2.53;;;1.35;;
73747;SDS011;62056;52.130;5.428;2023-07-29T05:49:59;4.65;;;2.60;;
73747;SDS011;62056;52.130;5.428;2023-07-29T05:52:31;2.90;;;2.70;;
73747;SDS011;62056;52.130;5.428;2023-07-29T05:54:57;6.30;;;2.13;;
73747;SDS011;62056;52.130;5.428;2023-07-29T05:57:25;2.65;;;2.22;;
73747;SDS011;62056;52.130;5.428;2023-07-29T05:59:51;3.97;;;2.00;;
73747;SDS011;62056;52.130;5.428;2023-07-29T06:02:18;3.33;;;1.65;;
73747;SDS011;62056;52.130;5.428;2023-07-29T06:04:45;3.57;;;1.80;;
73747;SDS011;62056;52.130;5.428;2023-07-29T06:07:11;5.30;;;1.40;;
73747;SDS011;62056;52.130;5.428;2023-07-29T06:09:38;2.65;;;1.98;;
73747;SDS011;62056;52.130;5.428;2023-07-29T06:12:08;2.50;;;2.08;;
73747;SDS011;62056;52.130;5.428;2023-07-29T06:14:35;5.10;;;2.45;;
73747;SDS011;62056;52.130;5.428;2023-07-29T06:17:01;3.43;;;2.37;;
73747;SDS011;62056;52.130;5.428;2023-07-29T06:19:29;2.10;;;1.90;;
73747;SDS011;62056;52.130;5.428;2023-07-29T06:21:55;2.83;;;2.08;;
73747;SDS011;62056;52.130;5.428;2023-07-29T06:24:22;5.07;;;2.10;;
73747;SDS011;62056;52.130;5.428;2023-07-29T06:26:49;7.20;;;3.38;;
73747;SDS011;62056;52.130;5.428;2023-07-29T06:29:15;7.47;;;2.27;;
73747;SDS011;62056;52.130;5.428;2023-07-29T06:31:42;2.30;;;1.92;;
73747;SDS011;62056;52.130;5.428;2023-07-29T06:34:09;3.88;;;2.55;;
73747;SDS011;62056;52.130;5.428;2023-07-29T06:36:35;2.50;;;2.28;;
73747;SDS011;62056;52.130;5.428;2023-07-29T06:39:02;2.63;;;2.42;;
73747;SDS011;62056;52.130;5.428;2023-07-29T06:41:29;4.47;;;2.50;;
73747;SDS011;62056;52.130;5.428;2023-07-29T06:43:57;6.88;;;4.70;;
73747;SDS011;62056;52.130;5.428;2023-07-29T06:46:23;3.63;;;1.90;;
73747;SDS011;62056;52.130;5.428;2023-07-29T06:48:51;4.10;;;2.25;;
73747;SDS011;62056;52.130;5.428;2023-07-29T06:51:17;3.65;;;2.70;;
73747;SDS011;62056;52.130;5.428;2023-07-29T06:53:44;3.37;;;2.50;;
73747;SDS011;62056;52.130;5.428;2023-07-29T06:56:11;5.05;;;2.67;;
73747;SDS011;62056;52.130;5.428;2023-07-29T06:58:37;3.28;;;2.42;;
73747;SDS011;62056;52.130;5.428;2023-07-29T07:01:04;4.05;;;2.20;;
73747;SDS011;62056;52.130;5.428;2023-07-29T07:03:31;3.38;;;1.95;;
73747;SDS011;62056;52.130;5.428;2023-07-29T07:05:58;4.73;;;2.50;;
73747;SDS011;62056;52.130;5.428;2023-07-29T07:08:25;5.47;;;2.00;;
73747;SDS011;62056;52.130;5.428;2023-07-29T07:10:52;2.60;;;2.40;;
73747;SDS011;62056;52.130;5.428;2023-07-29T07:13:19;5.15;;;3.30;;
73747;SDS011;62056;52.130;5.428;2023-07-29T07:15:45;5.90;;;2.58;;
73747;SDS011;62056;52.130;5.428;2023-07-29T07:18:12;4.27;;;2.57;;
73747;SDS011;62056;52.130;5.428;2023-07-29T07:20:39;2.60;;;2.15;;
73747;SDS011;62056;52.130;5.428;2023-07-29T07:23:06;3.75;;;2.63;;
73747;SDS011;62056;52.130;5.428;2023-07-29T07:25:36;2.55;;;2.35;;
73747;SDS011;62056;52.130;5.428;2023-07-29T07:28:03;2.88;;;2.20;;
73747;SDS011;62056;52.130;5.428;2023-07-29T07:30:31;3.70;;;2.47;;
73747;SDS011;62056;52.130;5.428;2023-07-29T07:32:58;2.88;;;2.65;;
73747;SDS011;62056;52.130;5.428;2023-07-29T07:35:25;4.55;;;2.13;;
73747;SDS011;62056;52.130;5.428;2023-07-29T07:37:51;2.33;;;2.08;;
73747;SDS011;62056;52.130;5.428;2023-07-29T07:40:18;3.10;;;2.10;;
73747;SDS011;62056;52.130;5.428;2023-07-29T07:42:45;5.23;;;2.97;;
73747;SDS011;62056;52.130;5.428;2023-07-29T07:45:11;3.13;;;2.17;;
73747;SDS011;62056;52.130;5.428;2023-07-29T07:47:38;5.32;;;2.63;;
73747;SDS011;62056;52.130;5.428;2023-07-29T07:50:05;3.78;;;2.55;;
73747;SDS011;62056;52.130;5.428;2023-07-29T07:52:32;5.40;;;3.15;;
73747;SDS011;62056;52.130;5.428;2023-07-29T07:54:59;5.07;;;3.57;;
73747;SDS011;62056;52.130;5.428;2023-07-29T07:57:28;3.03;;;2.75;;
73747;SDS011;62056;52.130;5.428;2023-07-29T07:59:54;5.03;;;2.70;;
73747;SDS011;62056;52.130;5.428;2023-07-29T08:02:21;2.95;;;2.50;;
73747;SDS011;62056;52.130;5.428;2023-07-29T08:04:48;6.60;;;2.80;;
73747;SDS011;62056;52.130;5.428;2023-07-29T08:07:15;2.73;;;2.53;;
73747;SDS011;62056;52.130;5.428;2023-07-29T08:09:42;2.65;;;2.13;;
73747;SDS011;62056;52.130;5.428;2023-07-29T08:12:08;4.07;;;2.15;;
73747;SDS011;62056;52.130;5.428;2023-07-29T08:14:35;2.38;;;2.17;;
73747;SDS011;62056;52.130;5.428;2023-07-29T08:17:02;2.33;;;1.85;;
73747;SDS011;62056;52.130;5.428;2023-07-29T08:19:32;3.03;;;1.70;;
73747;SDS011;62056;52.130;5.428;2023-07-29T08:22:02;2.20;;;2.00;;
73747;SDS011;62056;52.130;5.428;2023-07-29T08:24:29;2.20;;;1.95;;
73747;SDS011;62056;52.130;5.428;2023-07-29T08:26:56;11.35;;;2.70;;
73747;SDS011;62056;52.130;5.428;2023-07-29T08:29:23;6.70;;;2.30;;
73747;SDS011;62056;52.130;5.428;2023-07-29T08:31:50;3.40;;;1.90;;
73747;SDS011;62056;52.130;5.428;2023-07-29T08:34:19;2.60;;;1.60;;
73747;SDS011;62056;52.130;5.428;2023-07-29T08:36:48;2.50;;;1.65;;
73747;SDS011;62056;52.130;5.428;2023-07-29T08:39:16;2.75;;;1.83;;
73747;SDS011;62056;52.130;5.428;2023-07-29T08:44:22;2.70;;;1.90;;
73747;SDS011;62056;52.130;5.428;2023-07-29T08:46:59;1.45;;;1.23;;
73747;SDS011;62056;52.130;5.428;2023-07-29T08:49:26;2.03;;;1.70;;
73747;SDS011;62056;52.130;5.428;2023-07-29T08:51:54;4.85;;;1.75;;
73747;SDS011;62056;52.130;5.428;2023-07-29T08:54:23;3.60;;;1.60;;
73747;SDS011;62056;52.130;5.428;2023-07-29T08:56:51;2.67;;;1.47;;
73747;SDS011;62056;52.130;5.428;2023-07-29T08:59:18;4.97;;;1.13;;
73747;SDS011;62056;52.130;5.428;2023-07-29T09:01:45;2.38;;;1.10;;
73747;SDS011;62056;52.130;5.428;2023-07-29T09:04:15;3.50;;;1.10;;
73747;SDS011;62056;52.130;5.428;2023-07-29T09:06:43;4.47;;;1.50;;
73747;SDS011;62056;52.130;5.428;2023-07-29T09:09:10;2.00;;;1.30;;
73747;SDS011;62056;52.130;5.428;2023-07-29T09:11:37;3.22;;;1.30;;
73747;SDS011;62056;52.130;5.428;2023-07-29T09:14:04;1.88;;;1.40;;
73747;SDS011;62056;52.130;5.428;2023-07-29T09:16:31;1.65;;;0.85;;
73747;SDS011;62056;52.130;5.428;2023-07-29T09:19:02;2.83;;;1.67;;
73747;SDS011;62056;52.130;5.428;2023-07-29T09:21:30;1.97;;;1.07;;
73747;SDS011;62056;52.130;5.428;2023-07-29T09:24:02;2.95;;;2.60;;
73747;SDS011;62056;52.130;5.428;2023-07-29T09:26:29;5.68;;;1.58;;
73747;SDS011;62056;52.130;5.428;2023-07-29T09:28:58;1.80;;;1.38;;
73747;SDS011;62056;52.130;5.428;2023-07-29T09:31:26;8.70;;;1.60;;
73747;SDS011;62056;52.130;5.428;2023-07-29T09:33:57;3.20;;;1.43;;
73747;SDS011;62056;52.130;5.428;2023-07-29T09:36:29;2.28;;;1.40;;
73747;SDS011;62056;52.130;5.428;2023-07-29T09:38:57;3.10;;;2.35;;
73747;SDS011;62056;52.130;5.428;2023-07-29T09:41:30;4.25;;;1.60;;
73747;SDS011;62056;52.130;5.428;2023-07-29T09:44:08;3.92;;;1.88;;
73747;SDS011;62056;52.130;5.428;2023-07-29T09:46:46;4.00;;;1.57;;
73747;SDS011;62056;52.130;5.428;2023-07-29T09:49:26;2.30;;;1.60;;
73747;SDS011;62056;52.130;5.428;2023-07-29T09:51:55;1.90;;;1.45;;
73747;SDS011;62056;52.130;5.428;2023-07-29T09:54:33;8.55;;;2.03;;
73747;SDS011;62056;52.130;5.428;2023-07-29T09:57:03;1.70;;;1.52;;
73747;SDS011;62056;52.130;5.428;2023-07-29T09:59:34;2.43;;;1.40;;
73747;SDS011;62056;52.130;5.428;2023-07-29T10:02:04;2.47;;;1.75;;
73747;SDS011;62056;52.130;5.428;2023-07-29T10:04:35;4.03;;;2.38;;
73747;SDS011;62056;52.130;5.428;2023-07-29T10:07:02;2.47;;;1.80;;
73747;SDS011;62056;52.130;5.428;2023-07-29T10:09:33;2.30;;;2.05;;
73747;SDS011;62056;52.130;5.428;2023-07-29T10:12:00;3.83;;;2.30;;
73747;SDS011;62056;52.130;5.428;2023-07-29T10:14:27;3.42;;;2.25;;
73747;SDS011;62056;52.130;5.428;2023-07-29T10:16:54;3.45;;;2.40;;
73747;SDS011;62056;52.130;5.428;2023-07-29T10:19:22;2.17;;;2.00;;
73747;SDS011;62056;52.130;5.428;2023-07-29T10:21:54;3.97;;;2.20;;
73747;SDS011;62056;52.130;5.428;2023-07-29T10:24:25;2.90;;;2.27;;
73747;SDS011;62056;52.130;5.428;2023-07-29T10:27:00;2.22;;;2.03;;
73747;SDS011;62056;52.130;5.428;2023-07-29T10:29:29;2.42;;;2.20;;
73747;SDS011;62056;52.130;5.428;2023-07-29T10:32:02;2.95;;;2.38;;
73747;SDS011;62056;52.130;5.428;2023-07-29T10:34:32;2.78;;;2.40;;
73747;SDS011;62056;52.130;5.428;2023-07-29T10:37:00;3.93;;;1.90;;
73747;SDS011;62056;52.130;5.428;2023-07-29T10:39:27;2.70;;;2.50;;
73747;SDS011;62056;52.130;5.428;2023-07-29T10:42:05;2.65;;;2.45;;
73747;SDS011;62056;52.130;5.428;2023-07-29T10:49:40;3.77;;;2.40;;
73747;SDS011;62056;52.130;5.428;2023-07-29T10:52:14;2.60;;;2.40;;
73747;SDS011;62056;52.130;5.428;2023-07-29T10:54:43;2.60;;;2.40;;
73747;SDS011;62056;52.130;5.428;2023-07-29T10:57:14;4.82;;;2.47;;
73747;SDS011;62056;52.130;5.428;2023-07-29T10:59:52;2.72;;;2.08;;
73747;SDS011;62056;52.130;5.428;2023-07-29T11:02:28;3.40;;;2.50;;
73747;SDS011;62056;52.130;5.428;2023-07-29T11:04:57;6.30;;;2.65;;
73747;SDS011;62056;52.130;5.428;2023-07-29T11:07:26;5.47;;;2.22;;
73747;SDS011;62056;52.130;5.428;2023-07-29T11:09:55;3.15;;;1.98;;
73747;SDS011;62056;52.130;5.428;2023-07-29T11:15:24;2.77;;;1.37;;
73747;SDS011;62056;52.130;5.428;2023-07-29T11:17:56;2.30;;;1.38;;
73747;SDS011;62056;52.130;5.428;2023-07-29T11:20:28;4.63;;;1.00;;
73747;SDS011;62056;52.130;5.428;2023-07-29T11:23:02;1.65;;;0.90;;
73747;SDS011;62056;52.130;5.428;2023-07-29T11:25:30;1.60;;;1.25;;
73747;SDS011;62056;52.130;5.428;2023-07-29T11:27:59;1.20;;;1.03;;
73747;SDS011;62056;52.130;5.428;2023-07-29T11:30:31;1.55;;;0.85;;
73747;SDS011;62056;52.130;5.428;2023-07-29T11:33:03;1.10;;;0.80;;
73747;SDS011;62056;52.130;5.428;2023-07-29T11:35:30;1.20;;;0.75;;
73747;SDS011;62056;52.130;5.428;2023-07-29T11:37:58;2.45;;;0.77;;
73747;SDS011;62056;52.130;5.428;2023-07-29T11:40:25;0.80;;;0.57;;
73747;SDS011;62056;52.130;5.428;2023-07-29T11:42:52;1.15;;;0.60;;
73747;SDS011;62056;52.130;5.428;2023-07-29T11:45:20;2.15;;;0.93;;
73747;SDS011;62056;52.130;5.428;2023-07-29T11:47:57;1.27;;;0.60;;
73747;SDS011;62056;52.130;5.428;2023-07-29T11:50:25;1.98;;;0.77;;
73747;SDS011;62056;52.130;5.428;2023-07-29T11:52:52;0.80;;;0.50;;
73747;SDS011;62056;52.130;5.428;2023-07-29T11:55:18;1.15;;;0.70;;
73747;SDS011;62056;52.130;5.428;2023-07-29T11:57:46;1.05;;;0.90;;
73747;SDS011;62056;52.130;5.428;2023-07-29T12:00:18;0.98;;;0.60;;
73747;SDS011;62056;52.130;5.428;2023-07-29T12:02:47;1.50;;;0.85;;
73747;SDS011;62056;52.130;5.428;2023-07-29T12:05:16;0.77;;;0.50;;
73747;SDS011;62056;52.130;5.428;2023-07-29T12:07:44;1.23;;;0.80;;
73747;SDS011;62056;52.130;5.428;2023-07-29T12:10:11;1.60;;;1.23;;
73747;SDS011;62056;52.130;5.428;2023-07-29T12:12:43;1.00;;;0.88;;
73747;SDS011;62056;52.130;5.428;2023-07-29T12:15:27;1.92;;;0.95;;
73747;SDS011;62056;52.130;5.428;2023-07-29T12:17:56;2.23;;;2.03;;
73747;SDS011;62056;52.130;5.428;2023-07-29T12:20:24;1.55;;;1.42;;
73747;SDS011;62056;52.130;5.428;2023-07-29T12:22:57;2.28;;;1.27;;
73747;SDS011;62056;52.130;5.428;2023-07-29T12:25:28;2.72;;;1.05;;
73747;SDS011;62056;52.130;5.428;2023-07-29T12:27:55;1.05;;;0.80;;
73747;SDS011;62056;52.130;5.428;2023-07-29T12:30:22;1.50;;;1.10;;
73747;SDS011;62056;52.130;5.428;2023-07-29T12:32:51;1.70;;;1.20;;
73747;SDS011;62056;52.130;5.428;2023-07-29T12:35:18;2.35;;;0.95;;
73747;SDS011;62056;52.130;5.428;2023-07-29T12:37:44;1.10;;;1.00;;
73747;SDS011;62056;52.130;5.428;2023-07-29T12:40:21;2.40;;;1.15;;
73747;SDS011;62056;52.130;5.428;2023-07-29T12:42:49;1.63;;;1.17;;
73747;SDS011;62056;52.130;5.428;2023-07-29T12:45:18;2.30;;;1.05;;
73747;SDS011;62056;52.130;5.428;2023-07-29T12:47:45;3.10;;;1.50;;
73747;SDS011;62056;52.130;5.428;2023-07-29T12:50:12;1.25;;;0.93;;
73747;SDS011;62056;52.130;5.428;2023-07-29T12:52:42;1.05;;;0.95;;
73747;SDS011;62056;52.130;5.428;2023-07-29T12:55:09;1.20;;;1.07;;
73747;SDS011;62056;52.130;5.428;2023-07-29T12:57:42;1.10;;;0.90;;
73747;SDS011;62056;52.130;5.428;2023-07-29T13:00:10;2.40;;;1.20;;
73747;SDS011;62056;52.130;5.428;2023-07-29T13:02:37;1.45;;;1.35;;
73747;SDS011;62056;52.130;5.428;2023-07-29T13:05:04;1.20;;;1.00;;
73747;SDS011;62056;52.130;5.428;2023-07-29T13:07:32;1.33;;;1.23;;
73747;SDS011;62056;52.130;5.428;2023-07-29T13:09:59;1.73;;;1.20;;
73747;SDS011;62056;52.130;5.428;2023-07-29T13:12:27;1.20;;;1.02;;
73747;SDS011;62056;52.130;5.428;2023-07-29T13:14:56;2.75;;;1.00;;
73747;SDS011;62056;52.130;5.428;2023-07-29T13:17:47;1.00;;;0.65;;
73747;SDS011;62056;52.130;5.428;2023-07-29T13:20:14;1.63;;;1.03;;
73747;SDS011;62056;52.130;5.428;2023-07-29T13:22:41;1.02;;;0.82;;
73747;SDS011;62056;52.130;5.428;2023-07-29T13:25:08;1.10;;;0.80;;
73747;SDS011;62056;52.130;5.428;2023-07-29T13:27:36;1.92;;;0.90;;
73747;SDS011;62056;52.130;5.428;2023-07-29T13:30:03;1.15;;;0.95;;
73747;SDS011;62056;52.130;5.428;2023-07-29T13:32:32;3.13;;;1.20;;
73747;SDS011;62056;52.130;5.428;2023-07-29T13:34:59;1.15;;;0.93;;
73747;SDS011;62056;52.130;5.428;2023-07-29T13:37:25;1.25;;;1.15;;
73747;SDS011;62056;52.130;5.428;2023-07-29T13:39:53;1.00;;;0.80;;
73747;SDS011;62056;52.130;5.428;2023-07-29T13:42:19;1.13;;;1.02;;
73747;SDS011;62056;52.130;5.428;2023-07-29T13:44:46;0.90;;;0.77;;
73747;SDS011;62056;52.130;5.428;2023-07-29T13:47:13;1.10;;;0.90;;
73747;SDS011;62056;52.130;5.428;2023-07-29T13:49:40;1.55;;;1.02;;
73747;SDS011;62056;52.130;5.428;2023-07-29T13:52:08;1.30;;;1.20;;
73747;SDS011;62056;52.130;5.428;2023-07-29T13:54:35;1.98;;;1.20;;
73747;SDS011;62056;52.130;5.428;2023-07-29T13:57:01;1.57;;;1.13;;
73747;SDS011;62056;52.130;5.428;2023-07-29T13:59:28;2.13;;;1.10;;
73747;SDS011;62056;52.130;5.428;2023-07-29T14:01:58;2.55;;;1.20;;
73747;SDS011;62056;52.130;5.428;2023-07-29T14:04:25;1.10;;;1.00;;
73747;SDS011;62056;52.130;5.428;2023-07-29T14:06:54;1.83;;;1.10;;
73747;SDS011;62056;52.130;5.428;2023-07-29T14:09:25;1.47;;;1.13;;
73747;SDS011;62056;52.130;5.428;2023-07-29T14:11:53;2.03;;;0.82;;
73747;SDS011;62056;52.130;5.428;2023-07-29T14:14:20;1.70;;;0.90;;
73747;SDS011;62056;52.130;5.428;2023-07-29T14:16:47;2.63;;;0.80;;
73747;SDS011;62056;52.130;5.428;2023-07-29T14:19:16;4.03;;;0.95;;
73747;SDS011;62056;52.130;5.428;2023-07-29T14:21:44;1.00;;;0.77;;
73747;SDS011;62056;52.130;5.428;2023-07-29T14:24:11;3.88;;;1.20;;
73747;SDS011;62056;52.130;5.428;2023-07-29T14:26:39;1.05;;;0.90;;
73747;SDS011;62056;52.130;5.428;2023-07-29T14:29:08;1.10;;;0.82;;
73747;SDS011;62056;52.130;5.428;2023-07-29T14:31:35;1.48;;;1.00;;
73747;SDS011;62056;52.130;5.428;2023-07-29T14:34:02;1.17;;;1.00;;
73747;SDS011;62056;52.130;5.428;2023-07-29T14:36:28;2.13;;;0.90;;
73747;SDS011;62056;52.130;5.428;2023-07-29T14:38:55;1.10;;;0.93;;
73747;SDS011;62056;52.130;5.428;2023-07-29T14:41:22;2.08;;;1.10;;
73747;SDS011;62056;52.130;5.428;2023-07-29T14:43:49;4.10;;;0.98;;
73747;SDS011;62056;52.130;5.428;2023-07-29T14:46:15;1.50;;;0.80;;
73747;SDS011;62056;52.130;5.428;2023-07-29T14:48:42;3.53;;;1.23;;
73747;SDS011;62056;52.130;5.428;2023-07-29T14:51:10;2.92;;;1.00;;
73747;SDS011;62056;52.130;5.428;2023-07-29T14:53:36;1.48;;;0.82;;
73747;SDS011;62056;52.130;5.428;2023-07-29T14:56:03;1.45;;;1.35;;
73747;SDS011;62056;52.130;5.428;2023-07-29T14:58:30;1.10;;;0.90;;
73747;SDS011;62056;52.130;5.428;2023-07-29T15:00:57;1.60;;;0.90;;
73747;SDS011;62056;52.130;5.428;2023-07-29T15:03:24;1.10;;;0.70;;
73747;SDS011;62056;52.130;5.428;2023-07-29T15:05:51;4.40;;;0.93;;
73747;SDS011;62056;52.130;5.428;2023-07-29T15:08:18;1.17;;;1.02;;
73747;SDS011;62056;52.130;5.428;2023-07-29T15:10:45;1.03;;;0.63;;
73747;SDS011;62056;52.130;5.428;2023-07-29T15:13:12;1.20;;;0.90;;